createdAt,value
2018-08-30T00:00:59.181Z,53.63
2018-08-30T00:03:26.788Z,47.07
2018-08-30T00:05:54.324Z,50.70
2018-08-30T00:08:21.904Z,44.17
2018-08-30T00:10:49.428Z,45.57
2018-08-30T00:13:16.900Z,49.40
2018-08-30T00:15:44.525Z,47.50
2018-08-30T00:18:12.069Z,43.10
2018-08-30T00:20:39.576Z,42.63
2018-08-30T00:23:07.125Z,42.90
2018-08-30T00:25:34.701Z,39.33
2018-08-30T00:28:03.090Z,47.10
2018-08-30T00:30:30.629Z,41.80
2018-08-30T00:32:59.300Z,41.23
2018-08-30T00:35:26.880Z,48.60
2018-08-30T00:37:54.485Z,46.93
2018-08-30T00:40:22.068Z,45.33
2018-08-30T00:42:49.654Z,50.50
2018-08-30T00:45:17.113Z,47.17
2018-08-30T00:47:48.266Z,45.50
2018-08-30T00:50:16.092Z,50.47
2018-08-30T00:52:43.999Z,46.23
2018-08-30T00:55:12.622Z,45.37
2018-08-30T00:57:40.328Z,48.40
2018-08-30T01:00:08.316Z,49.60
2018-08-30T01:02:36.480Z,47.63
2018-08-30T01:05:04.544Z,47.90
2018-08-30T01:07:32.156Z,46.80
2018-08-30T01:09:59.812Z,48.90
2018-08-30T01:12:27.661Z,46.63
2018-08-30T01:14:55.377Z,54.67
2018-08-30T01:17:23.062Z,52.20
2018-08-30T01:19:50.725Z,54.67
2018-08-30T01:22:18.964Z,43.23
2018-08-30T01:24:46.448Z,52.33
2018-08-30T01:27:14.065Z,52.77
2018-08-30T01:29:41.709Z,49.13
2018-08-30T01:32:09.226Z,49.00
2018-08-30T01:34:37.107Z,46.63
2018-08-30T01:37:04.761Z,46.60
2018-08-30T01:39:32.232Z,54.20
2018-08-30T01:41:59.853Z,44.70
2018-08-30T01:44:27.401Z,41.80
2018-08-30T01:46:54.948Z,47.20
2018-08-30T01:49:22.464Z,45.97
2018-08-30T01:51:49.980Z,51.70
2018-08-30T01:54:17.465Z,49.33
2018-08-30T01:56:44.996Z,42.93
2018-08-30T01:59:12.484Z,43.77
2018-08-30T02:01:40.023Z,48.70
2018-08-30T02:04:07.497Z,48.80
2018-08-30T02:06:35.046Z,41.47
2018-08-30T02:09:02.761Z,45.97
2018-08-30T02:11:30.218Z,42.77
2018-08-30T02:13:57.709Z,42.70
2018-08-30T02:16:25.172Z,44.40
2018-08-30T02:18:52.708Z,50.63
2018-08-30T02:21:20.359Z,36.27
2018-08-30T02:23:48.120Z,44.27
2018-08-30T02:26:15.773Z,41.27
2018-08-30T02:28:43.448Z,39.10
2018-08-30T02:31:11.045Z,37.47
2018-08-30T02:33:38.775Z,42.60
2018-08-30T02:36:06.379Z,41.30
2018-08-30T02:38:34.023Z,39.90
2018-08-30T02:41:01.628Z,41.43
2018-08-30T02:43:29.389Z,42.30
2018-08-30T02:45:56.939Z,45.47
2018-08-30T02:48:24.517Z,46.07
2018-08-30T02:50:52.116Z,40.27
2018-08-30T02:53:19.720Z,40.50
2018-08-30T02:55:47.221Z,41.90
2018-08-30T02:58:15.066Z,40.33
2018-08-30T03:00:42.707Z,35.80
2018-08-30T03:03:10.372Z,33.97
2018-08-30T03:05:39.282Z,32.90
2018-08-30T03:08:07.109Z,34.90
2018-08-30T03:10:34.922Z,34.60
2018-08-30T03:13:02.622Z,33.83
2018-08-30T03:15:31.032Z,33.53
2018-08-30T03:17:58.595Z,32.80
2018-08-30T03:20:26.207Z,27.10
2018-08-30T03:22:53.805Z,25.53
2018-08-30T03:25:21.336Z,24.97
2018-08-30T03:27:49.490Z,27.83
2018-08-30T03:30:17.885Z,27.30
2018-08-30T03:32:45.373Z,25.70
2018-08-30T03:35:12.876Z,24.80
2018-08-30T03:37:40.424Z,26.50
2018-08-30T03:40:07.901Z,30.87
2018-08-30T03:42:35.432Z,30.90
2018-08-30T03:45:02.993Z,28.17
2018-08-30T03:47:31.301Z,29.50
2018-08-30T03:49:59.975Z,30.70
2018-08-30T03:52:27.515Z,28.97
2018-08-30T03:54:55.637Z,28.70
2018-08-30T03:57:23.369Z,30.07
2018-08-30T03:59:50.902Z,27.70
2018-08-30T04:02:18.623Z,26.60
2018-08-30T04:04:46.291Z,24.20
2018-08-30T04:07:13.964Z,28.40
2018-08-30T04:09:41.805Z,28.77
2018-08-30T04:12:09.429Z,27.37
2018-08-30T04:14:37.154Z,26.50
2018-08-30T04:17:05.317Z,22.97
2018-08-30T04:19:34.453Z,23.83
2018-08-30T04:22:04.574Z,20.40
2018-08-30T04:24:32.479Z,27.73
2018-08-30T04:27:00.336Z,24.27
2018-08-30T04:29:28.115Z,21.70
2018-08-30T04:31:56.034Z,24.70
2018-08-30T04:34:23.548Z,22.83
2018-08-30T04:36:51.277Z,27.80
2018-08-30T04:39:18.770Z,25.27
2018-08-30T04:41:46.438Z,26.73
2018-08-30T04:44:14.843Z,23.90
2018-08-30T04:46:42.976Z,24.20
2018-08-30T04:49:10.612Z,25.87
2018-08-30T04:51:38.138Z,23.60
2018-08-30T04:54:06.354Z,23.83
2018-08-30T04:56:34.257Z,22.50
2018-08-30T04:59:02.018Z,22.90
2018-08-30T05:01:29.921Z,25.33
2018-08-30T05:03:57.540Z,22.43
2018-08-30T05:06:25.833Z,25.60
2018-08-30T05:08:53.360Z,25.37
2018-08-30T05:11:21.229Z,26.23
2018-08-30T05:13:48.920Z,24.90
2018-08-30T05:16:16.977Z,29.30
2018-08-30T05:18:44.680Z,25.43
2018-08-30T05:21:12.568Z,28.30
2018-08-30T05:23:40.267Z,27.00
2018-08-30T05:29:00.602Z,28.80
2018-08-30T05:31:28.187Z,32.47
2018-08-30T05:33:55.956Z,28.10
2018-08-30T05:36:23.719Z,28.77
2018-08-30T05:38:51.310Z,32.13
2018-08-30T05:41:19.254Z,32.37
2018-08-30T05:43:47.422Z,33.77
2018-08-30T05:46:15.143Z,31.47
2018-08-30T05:48:43.006Z,31.87
2018-08-30T05:51:11.088Z,42.30
2018-08-30T05:53:38.733Z,33.83
2018-08-30T05:56:06.623Z,34.60
2018-08-30T05:58:34.351Z,36.50
2018-08-30T06:01:02.096Z,32.53
2018-08-30T06:03:29.888Z,33.20
2018-08-30T06:05:57.810Z,31.50
2018-08-30T06:08:25.567Z,31.20
2018-08-30T06:10:53.258Z,32.30
2018-08-30T06:13:21.068Z,31.07
2018-08-30T06:15:48.774Z,31.57
2018-08-30T06:18:16.440Z,33.50
2018-08-30T06:20:44.110Z,34.80
2018-08-30T06:23:11.767Z,28.17
2018-08-30T06:25:40.017Z,32.90
2018-08-30T06:28:07.872Z,29.87
2018-08-30T06:30:35.538Z,31.03
2018-08-30T06:33:03.722Z,32.23
2018-08-30T06:35:33.460Z,31.30
2018-08-30T06:38:01.115Z,31.70
2018-08-30T06:40:28.636Z,32.90
2018-08-30T06:42:56.245Z,29.27
2018-08-30T06:45:24.136Z,32.60
2018-08-30T06:47:52.263Z,31.83
2018-08-30T06:50:20.050Z,35.57
2018-08-30T06:52:48.451Z,32.57
2018-08-30T06:55:16.300Z,26.73
2018-08-30T06:57:43.954Z,34.73
2018-08-30T07:00:11.560Z,28.37
2018-08-30T07:02:39.276Z,29.27
2018-08-30T07:05:06.889Z,28.60
2018-08-30T07:07:34.461Z,28.63
2018-08-30T07:10:02.125Z,28.37
2018-08-30T07:12:29.688Z,30.40
2018-08-30T07:14:57.383Z,30.97
2018-08-30T07:17:25.240Z,27.60
2018-08-30T07:19:53.299Z,25.80
2018-08-30T07:22:21.024Z,26.87
2018-08-30T07:24:48.733Z,26.03
2018-08-30T07:27:16.374Z,28.20
2018-08-30T07:29:43.972Z,25.03
2018-08-30T07:32:11.589Z,27.17
2018-08-30T07:34:39.401Z,26.30
2018-08-30T07:37:07.796Z,31.63
2018-08-30T07:39:35.716Z,23.13
2018-08-30T07:42:03.885Z,30.93
2018-08-30T07:44:31.806Z,26.43
2018-08-30T07:46:59.236Z,22.80
2018-08-30T07:49:26.905Z,24.93
2018-08-30T07:51:54.466Z,24.30
2018-08-30T07:54:22.122Z,21.27
2018-08-30T07:56:49.702Z,24.07
2018-08-30T07:59:17.693Z,23.83
2018-08-30T08:01:45.282Z,24.23
2018-08-30T08:04:12.885Z,21.47
2018-08-30T08:06:40.495Z,22.70
2018-08-30T08:09:08.869Z,22.17
2018-08-30T08:11:36.569Z,22.47
2018-08-30T08:14:04.307Z,26.30
2018-08-30T08:16:31.950Z,20.50
2018-08-30T08:18:59.593Z,21.63
2018-08-30T08:21:27.183Z,19.43
2018-08-30T08:23:54.793Z,20.80
2018-08-30T08:26:22.585Z,19.33
2018-08-30T08:29:15.062Z,17.17
2018-08-30T08:31:42.968Z,17.40
2018-08-30T08:34:10.461Z,16.67
2018-08-30T08:36:37.990Z,16.93
2018-08-30T08:39:05.993Z,16.53
2018-08-30T08:41:34.673Z,18.90
2018-08-30T08:44:02.208Z,15.27
2018-08-30T08:46:30.522Z,20.37
2018-08-30T08:48:58.133Z,16.77
2018-08-30T08:51:25.677Z,15.47
2018-08-30T08:53:53.282Z,15.97
2018-08-30T08:56:20.708Z,15.50
2018-08-30T08:58:48.362Z,15.93
2018-08-30T09:01:15.892Z,17.37
2018-08-30T09:03:43.605Z,14.10
2018-08-30T09:06:11.097Z,15.67
2018-08-30T09:08:38.953Z,15.17
2018-08-30T09:11:06.501Z,15.47
2018-08-30T09:13:34.849Z,15.57
2018-08-30T09:16:02.340Z,18.33
2018-08-30T09:18:30.108Z,15.80
2018-08-30T09:20:57.840Z,17.27
2018-08-30T09:23:25.384Z,18.03
2018-08-30T09:25:52.876Z,16.37
2018-08-30T09:28:20.755Z,14.87
2018-08-30T09:30:48.518Z,14.37
2018-08-30T09:33:16.321Z,15.10
2018-08-30T09:35:43.941Z,14.37
2018-08-30T09:38:11.472Z,15.03
2018-08-30T09:40:39.089Z,17.50
2018-08-30T09:43:06.600Z,13.67
2018-08-30T09:45:34.854Z,13.70
2018-08-30T09:48:02.405Z,17.03
2018-08-30T09:50:29.965Z,13.40
2018-08-30T09:52:57.585Z,15.23
2018-08-30T09:55:25.211Z,15.67
2018-08-30T09:57:53.086Z,17.50
2018-08-30T10:00:26.470Z,15.10
2018-08-30T10:02:54.026Z,14.60
2018-08-30T10:05:21.545Z,14.93
2018-08-30T10:07:49.182Z,14.40
2018-08-30T10:10:16.677Z,15.40
2018-08-30T10:12:44.197Z,13.00
2018-08-30T10:15:12.158Z,13.23
2018-08-30T10:17:39.731Z,12.93
2018-08-30T10:20:07.284Z,16.07
2018-08-30T10:22:34.828Z,13.80
2018-08-30T10:25:02.334Z,14.27
2018-08-30T10:27:29.858Z,14.20
2018-08-30T10:29:57.635Z,12.03
2018-08-30T10:32:25.224Z,13.80
2018-08-30T10:34:52.831Z,12.47
2018-08-30T10:37:20.550Z,17.57
2018-08-30T10:39:48.073Z,11.07
2018-08-30T10:42:15.560Z,13.63
2018-08-30T10:44:43.366Z,11.90
2018-08-30T10:47:11.080Z,11.87
2018-08-30T10:49:38.913Z,11.50
2018-08-30T10:52:06.372Z,9.80
2018-08-30T10:54:33.892Z,9.50
2018-08-30T10:57:01.440Z,9.30
2018-08-30T10:59:28.950Z,9.20
2018-08-30T11:01:59.036Z,9.90
2018-08-30T11:04:26.701Z,9.83
2018-08-30T11:06:54.247Z,9.73
2018-08-30T11:09:21.745Z,14.20
2018-08-30T11:11:49.333Z,10.77
2018-08-30T11:14:16.921Z,9.40
2018-08-30T11:16:44.436Z,11.00
2018-08-30T11:19:11.920Z,10.60
2018-08-30T11:21:39.790Z,11.80
2018-08-30T11:24:07.696Z,8.73
2018-08-30T11:26:35.245Z,7.33
2018-08-30T11:29:02.770Z,10.50
2018-08-30T11:31:30.292Z,7.73
2018-08-30T11:33:57.945Z,9.47
2018-08-30T11:36:25.470Z,10.67
2018-08-30T11:38:53.059Z,8.27
2018-08-30T11:41:20.659Z,8.30
2018-08-30T11:43:48.276Z,9.27
2018-08-30T11:46:15.792Z,9.43
2018-08-30T11:48:45.169Z,7.07
2018-08-30T11:51:12.850Z,14.63
2018-08-30T11:53:40.364Z,7.40
2018-08-30T11:56:08.050Z,8.77
2018-08-30T11:58:35.945Z,8.83
2018-08-30T12:01:03.615Z,8.47
2018-08-30T12:03:32.787Z,8.10
2018-08-30T12:06:01.198Z,9.47
2018-08-30T12:08:28.814Z,8.03
2018-08-30T12:10:56.586Z,10.60
2018-08-30T12:13:24.204Z,8.20
2018-08-30T12:15:51.898Z,11.67
2018-08-30T12:18:19.437Z,8.33
2018-08-30T12:20:47.396Z,7.30
2018-08-30T12:23:14.840Z,11.73
2018-08-30T12:25:42.348Z,11.60
2018-08-30T12:28:10.026Z,10.00
2018-08-30T12:30:37.826Z,9.80
2018-08-30T12:33:05.546Z,11.20
2018-08-30T12:35:34.107Z,11.90
2018-08-30T12:38:02.016Z,10.27
2018-08-30T12:40:29.549Z,11.80
2018-08-30T12:42:58.109Z,15.40
2018-08-30T12:45:26.089Z,8.00
2018-08-30T12:47:54.610Z,7.20
2018-08-30T12:50:24.894Z,6.37
2018-08-30T12:52:52.369Z,7.33
2018-08-30T12:55:20.078Z,12.23
2018-08-30T12:57:49.559Z,6.33
2018-08-30T13:00:18.304Z,7.33
2018-08-30T13:02:46.038Z,5.90
2018-08-30T13:05:15.077Z,5.40
2018-08-30T13:07:42.963Z,7.00
2018-08-30T13:10:10.858Z,6.17
2018-08-30T13:12:38.639Z,8.77
2018-08-30T13:15:06.369Z,7.37
2018-08-30T13:17:33.800Z,5.03
2018-08-30T13:20:03.413Z,13.00
2018-08-30T13:22:31.272Z,7.73
2018-08-30T13:24:59.414Z,7.63
2018-08-30T13:27:27.053Z,7.40
2018-08-30T13:29:55.334Z,9.27
2018-08-30T13:32:23.342Z,10.67
2018-08-30T13:34:50.948Z,10.77
2018-08-30T13:37:18.271Z,5.57
2018-08-30T13:39:45.938Z,7.00
2018-08-30T13:42:13.762Z,9.60
2018-08-30T13:44:41.823Z,7.50
2018-08-30T13:47:09.636Z,8.60
2018-08-30T13:49:37.379Z,13.73
2018-08-30T13:52:05.619Z,7.80
2018-08-30T13:54:33.518Z,7.60
2018-08-30T13:57:01.444Z,11.83
2018-08-30T13:59:29.878Z,6.13
2018-08-30T14:02:01.179Z,6.47
2018-08-30T14:04:28.613Z,7.23
2018-08-30T14:06:56.474Z,10.90
2018-08-30T14:09:23.740Z,4.43
2018-08-30T14:11:51.438Z,7.73
2018-08-30T14:14:18.767Z,6.20
2018-08-30T14:16:46.103Z,6.20
2018-08-30T14:19:13.679Z,6.27
2018-08-30T14:21:41.193Z,4.03
2018-08-30T14:24:08.715Z,7.67
2018-08-30T14:26:36.305Z,8.60
2018-08-30T14:29:03.720Z,4.70
2018-08-30T14:31:31.596Z,8.93
2018-08-30T14:34:04.252Z,7.60
2018-08-30T14:36:31.782Z,7.03
2018-08-30T14:38:59.793Z,8.23
2018-08-30T14:41:27.788Z,9.90
2018-08-30T14:43:55.342Z,16.40
2018-08-30T14:46:23.485Z,11.20
2018-08-30T14:48:50.940Z,6.80
2018-08-30T14:51:18.586Z,13.43
2018-08-30T14:56:35.013Z,13.17
2018-08-30T14:59:03.093Z,6.33
2018-08-30T15:01:30.842Z,10.80
2018-08-30T15:03:58.422Z,15.17
2018-08-30T15:06:25.909Z,10.20
2018-08-30T15:08:53.784Z,12.67
2018-08-30T15:11:21.526Z,7.63
2018-08-30T15:13:49.522Z,10.37
2018-08-30T15:16:17.366Z,8.40
2018-08-30T15:18:45.105Z,8.43
2018-08-30T15:21:12.855Z,9.73
2018-08-30T15:23:40.785Z,9.70
2018-08-30T15:26:08.778Z,8.10
2018-08-30T15:28:36.409Z,9.70
2018-08-30T15:31:04.248Z,9.60
2018-08-30T15:33:32.122Z,12.37
2018-08-30T15:35:59.592Z,5.80
2018-08-30T15:38:27.410Z,7.90
2018-08-30T15:40:55.344Z,10.93
2018-08-30T15:43:23.082Z,6.10
2018-08-30T15:45:50.657Z,10.37
2018-08-30T15:48:18.285Z,8.33
2018-08-30T15:50:45.889Z,7.13
2018-08-30T15:53:13.719Z,7.87
2018-08-30T15:55:41.443Z,7.77
2018-08-30T15:58:09.342Z,6.67
2018-08-30T16:00:37.449Z,4.03
2018-08-30T16:03:05.407Z,6.57
2018-08-30T16:05:34.122Z,9.23
2018-08-30T16:08:12.801Z,6.53
2018-08-30T16:10:40.839Z,7.80
2018-08-30T16:13:08.419Z,7.67
2018-08-30T16:15:36.536Z,7.00
2018-08-30T16:18:04.246Z,8.10
2018-08-30T16:20:32.899Z,4.73
2018-08-30T16:23:36.030Z,7.53
2018-08-30T16:26:04.259Z,8.90
2018-08-30T16:28:32.944Z,7.87
2018-08-30T16:31:04.224Z,4.03
2018-08-30T16:33:31.929Z,8.43
2018-08-30T16:35:59.597Z,10.13
2018-08-30T16:38:27.039Z,4.90
2018-08-30T16:40:54.534Z,7.77
2018-08-30T16:43:22.005Z,7.53
2018-08-30T16:45:49.510Z,9.43
2018-08-30T16:48:17.058Z,8.97
2018-08-30T16:50:44.559Z,6.00
2018-08-30T16:53:12.131Z,6.53
2018-08-30T16:55:39.865Z,6.97
2018-08-30T16:58:07.939Z,6.60
2018-08-30T17:00:35.348Z,7.43
2018-08-30T17:03:03.190Z,6.77
2018-08-30T17:05:30.714Z,7.13
2018-08-30T17:07:58.883Z,9.33
2018-08-30T17:10:26.687Z,5.00
2018-08-30T17:12:54.169Z,8.40
2018-08-30T17:15:22.205Z,9.90
2018-08-30T17:17:50.421Z,6.23
2018-08-30T17:20:25.820Z,3.77
2018-08-30T17:22:53.278Z,5.83
2018-08-30T17:25:20.867Z,4.80
2018-08-30T17:27:48.289Z,8.23
2018-08-30T17:30:15.877Z,7.87
2018-08-30T17:32:43.439Z,6.63
2018-08-30T17:35:10.866Z,6.73
2018-08-30T17:37:38.321Z,3.77
2018-08-30T17:40:05.926Z,5.80
2018-08-30T17:42:33.741Z,10.03
2018-08-30T17:45:01.210Z,7.77
2018-08-30T17:47:28.656Z,7.03
2018-08-30T17:49:56.382Z,5.53
2018-08-30T17:52:24.517Z,3.43
2018-08-30T17:54:52.087Z,6.10
2018-08-30T17:57:19.546Z,6.07
2018-08-30T17:59:47.008Z,6.10
2018-08-30T18:02:14.611Z,6.13
2018-08-30T18:04:42.548Z,4.20
2018-08-30T18:07:10.057Z,6.70
2018-08-30T18:09:38.037Z,5.00
2018-08-30T18:12:07.154Z,7.63
2018-08-30T18:14:34.625Z,4.47
2018-08-30T18:17:02.042Z,6.40
2018-08-30T18:19:29.449Z,5.40
2018-08-30T18:21:57.002Z,7.43
2018-08-30T18:24:24.534Z,8.90
2018-08-30T18:26:52.098Z,4.97
2018-08-30T18:29:20.041Z,5.93
2018-08-30T18:31:47.470Z,8.33
2018-08-30T18:34:15.095Z,4.10
2018-08-30T18:36:42.526Z,5.57
2018-08-30T18:39:10.564Z,6.30
2018-08-30T18:41:41.260Z,6.73
2018-08-30T18:44:08.742Z,2.63
2018-08-30T18:46:36.749Z,4.37
2018-08-30T18:49:05.211Z,3.43
2018-08-30T18:51:33.376Z,4.00
2018-08-30T18:54:01.241Z,5.70
2018-08-30T18:56:29.641Z,6.27
2018-08-30T18:58:58.037Z,6.77
2018-08-30T19:01:26.042Z,2.70
2018-08-30T19:03:54.618Z,4.80
2018-08-30T19:06:22.771Z,8.63
2018-08-30T19:08:50.814Z,5.53
2018-08-30T19:11:18.608Z,6.73
2018-08-30T19:13:47.514Z,6.67
2018-08-30T19:16:21.403Z,5.53
2018-08-30T19:18:55.122Z,6.80
2018-08-30T19:21:23.030Z,4.80
2018-08-30T19:23:50.950Z,6.17
2018-08-30T19:26:19.151Z,8.80
2018-08-30T19:28:47.698Z,7.20
2018-08-30T19:31:16.776Z,7.50
2018-08-30T19:33:44.911Z,4.73
2018-08-30T19:36:18.606Z,7.40
2018-08-30T19:38:46.445Z,5.70
2018-08-30T19:41:18.830Z,10.87
2018-08-30T19:43:47.394Z,6.30
2018-08-30T19:46:15.097Z,5.97
2018-08-30T19:48:42.674Z,4.17
2018-08-30T19:51:10.468Z,7.00
2018-08-30T19:53:39.136Z,8.20
2018-08-30T19:56:06.510Z,13.63
2018-08-30T19:58:34.102Z,6.10
2018-08-30T20:01:01.700Z,5.43
2018-08-30T20:03:29.483Z,5.90
2018-08-30T20:05:57.042Z,6.20
2018-08-30T20:08:24.710Z,3.33
2018-08-30T20:10:52.779Z,8.83
2018-08-30T20:13:20.342Z,3.33
2018-08-30T20:15:48.030Z,9.70
2018-08-30T20:18:15.513Z,7.60
2018-08-30T20:20:43.835Z,3.47
2018-08-30T20:23:11.905Z,5.73
2018-08-30T20:25:40.529Z,4.37
2018-08-30T20:28:08.166Z,6.30
2018-08-30T20:30:35.692Z,2.93
2018-08-30T20:33:03.200Z,6.37
2018-08-30T20:35:30.626Z,5.07
2018-08-30T20:37:58.135Z,7.13
2018-08-30T20:40:25.754Z,6.43
2018-08-30T20:42:53.603Z,3.60
2018-08-30T20:45:21.225Z,8.97
2018-08-30T20:47:48.677Z,4.70
2018-08-30T20:50:16.192Z,10.07
2018-08-30T20:52:43.673Z,5.53
2018-08-30T20:55:11.150Z,4.13
2018-08-30T20:57:39.855Z,2.90
2018-08-30T21:00:07.826Z,3.87
2018-08-30T21:02:35.965Z,5.10
2018-08-30T21:05:03.580Z,5.63
2018-08-30T21:07:31.144Z,4.93
2018-08-30T21:09:58.725Z,9.17
2018-08-30T21:12:26.418Z,10.90
2018-08-30T21:14:53.927Z,12.33
2018-08-30T21:17:21.743Z,10.03
2018-08-30T21:19:49.291Z,7.97
2018-08-30T21:22:16.730Z,5.20
2018-08-30T21:24:44.166Z,4.20
2018-08-30T21:27:11.743Z,7.00
2018-08-30T21:29:39.741Z,4.37
2018-08-30T21:32:07.221Z,6.83
2018-08-30T21:34:35.129Z,10.33
2018-08-30T21:37:06.018Z,3.17
2018-08-30T21:39:33.882Z,5.53
2018-08-30T21:42:01.582Z,8.73
2018-08-30T21:44:29.077Z,6.00
2018-08-30T21:46:56.816Z,4.27
2018-08-30T21:49:24.254Z,4.80
2018-08-30T21:51:52.082Z,3.90
2018-08-30T21:54:19.544Z,5.33
2018-08-30T21:56:46.961Z,3.47
2018-08-30T21:59:14.981Z,10.17
2018-08-30T22:01:43.174Z,6.20
2018-08-30T22:04:10.731Z,6.07
2018-08-30T22:06:38.248Z,5.20
2018-08-30T22:09:09.080Z,5.73
2018-08-30T22:11:36.709Z,3.83
2018-08-30T22:14:04.377Z,6.07
2018-08-30T22:16:31.896Z,7.90
2018-08-30T22:18:59.445Z,4.80
2018-08-30T22:21:27.069Z,8.30
2018-08-30T22:23:54.565Z,5.20
2018-08-30T22:26:21.986Z,4.10
2018-08-30T22:28:49.448Z,7.23
2018-08-30T22:31:16.894Z,6.10
2018-08-30T22:33:45.120Z,5.73
2018-08-30T22:36:12.783Z,4.97
2018-08-30T22:38:40.202Z,6.13
2018-08-30T22:41:07.649Z,5.50
2018-08-30T22:43:35.469Z,3.90
2018-08-30T22:46:03.101Z,5.50
2018-08-30T22:48:30.506Z,4.30
2018-08-30T22:50:58.050Z,3.80
2018-08-30T22:53:25.476Z,4.80
2018-08-30T22:55:53.016Z,4.50
2018-08-30T22:58:20.591Z,10.90
2018-08-30T23:00:48.032Z,7.40
2018-08-30T23:03:16.074Z,3.80
2018-08-30T23:05:43.989Z,4.37
2018-08-30T23:08:12.113Z,4.67
2018-08-30T23:10:39.571Z,7.40
2018-08-30T23:13:07.201Z,7.90
2018-08-30T23:15:34.721Z,5.40
2018-08-30T23:18:02.505Z,8.47
2018-08-30T23:20:30.205Z,5.30
2018-08-30T23:22:57.702Z,9.83
2018-08-30T23:25:25.434Z,4.50
2018-08-30T23:27:52.879Z,5.80
2018-08-30T23:30:20.387Z,5.20
2018-08-30T23:32:47.896Z,5.33
2018-08-30T23:35:15.430Z,2.80
2018-08-30T23:37:42.861Z,3.20
2018-08-30T23:40:10.350Z,5.27
2018-08-30T23:42:38.085Z,5.53
2018-08-30T23:45:05.561Z,5.83
2018-08-30T23:47:32.976Z,4.90
2018-08-30T23:50:00.651Z,4.53
2018-08-30T23:52:28.354Z,5.00
2018-08-30T23:54:56.042Z,8.30
2018-08-30T23:57:23.577Z,4.20
